sensor_id;sensor_type;location;lat;lon;timestamp;temperature;humidity
3360;DHT22;1693;49.602;11.046;2023-04-03T00:00:35;3.30;99.90
3360;DHT22;1693;49.602;11.046;2023-04-03T00:03:01;3.20;99.90
3360;DHT22;1693;49.602;11.046;2023-04-03T00:05:28;3.20;99.90
3360;DHT22;1693;49.602;11.046;2023-04-03T00:07:56;3.20;99.90
3360;DHT22;1693;49.602;11.046;2023-04-03T00:10:23;3.20;99.90
3360;DHT22;1693;49.602;11.046;2023-04-03T00:12:50;3.20;99.90
3360;DHT22;1693;49.602;11.046;2023-04-03T00:15:17;3.20;99.90
3360;DHT22;1693;49.602;11.046;2023-04-03T00:17:46;3.10;99.90
3360;DHT22;1693;49.602;11.046;2023-04-03T00:20:13;3.10;99.90
3360;DHT22;1693;49.602;11.046;2023-04-03T00:22:40;3.00;99.90
3360;DHT22;1693;49.602;11.046;2023-04-03T00:25:08;2.90;99.90
3360;DHT22;1693;49.602;11.046;2023-04-03T00:27:36;2.90;99.90
3360;DHT22;1693;49.602;11.046;2023-04-03T00:30:05;2.80;99.90
3360;DHT22;1693;49.602;11.046;2023-04-03T00:32:32;2.80;99.90
3360;DHT22;1693;49.602;11.046;2023-04-03T00:35:00;2.80;99.90
3360;DHT22;1693;49.602;11.046;2023-04-03T00:37:28;2.70;99.90
3360;DHT22;1693;49.602;11.046;2023-04-03T00:39:55;2.70;99.90
3360;DHT22;1693;49.602;11.046;2023-04-03T00:42:22;2.60;99.90
3360;DHT22;1693;49.602;11.046;2023-04-03T00:45:25;2.60;99.90
3360;DHT22;1693;49.602;11.046;2023-04-03T00:47:53;2.70;99.90
3360;DHT22;1693;49.602;11.046;2023-04-03T00:50:23;2.70;99.90
3360;DHT22;1693;49.602;11.046;2023-04-03T00:52:50;2.70;99.90
3360;DHT22;1693;49.602;11.046;2023-04-03T00:55:18;2.70;99.90
3360;DHT22;1693;49.602;11.046;2023-04-03T00:57:46;2.70;99.90
3360;DHT22;1693;49.602;11.046;2023-04-03T01:00:17;2.80;99.90
3360;DHT22;1693;49.602;11.046;2023-04-03T01:02:45;2.70;99.90
3360;DHT22;1693;49.602;11.046;2023-04-03T01:05:13;2.70;99.90
3360;DHT22;1693;49.602;11.046;2023-04-03T01:07:43;2.70;99.90
3360;DHT22;1693;49.602;11.046;2023-04-03T01:10:14;2.70;99.90
3360;DHT22;1693;49.602;11.046;2023-04-03T01:12:44;2.70;99.90
3360;DHT22;1693;49.602;11.046;2023-04-03T01:15:17;2.70;99.90
3360;DHT22;1693;49.602;11.046;2023-04-03T01:17:46;2.60;99.90
3360;DHT22;1693;49.602;11.046;2023-04-03T01:23:36;2.50;99.90
3360;DHT22;1693;49.602;11.046;2023-04-03T01:26:05;2.50;99.90
3360;DHT22;1693;49.602;11.046;2023-04-03T01:28:34;2.40;99.90
3360;DHT22;1693;49.602;11.046;2023-04-03T01:31:09;2.40;99.90
3360;DHT22;1693;49.602;11.046;2023-04-03T01:33:40;2.30;99.90
3360;DHT22;1693;49.602;11.046;2023-04-03T01:36:07;2.30;99.90
3360;DHT22;1693;49.602;11.046;2023-04-03T01:38:35;2.30;99.90
3360;DHT22;1693;49.602;11.046;2023-04-03T01:41:03;2.20;99.90
3360;DHT22;1693;49.602;11.046;2023-04-03T01:43:30;2.20;99.90
3360;DHT22;1693;49.602;11.046;2023-04-03T01:45:57;2.10;99.90
3360;DHT22;1693;49.602;11.046;2023-04-03T01:48:24;2.10;99.90
3360;DHT22;1693;49.602;11.046;2023-04-03T01:50:53;2.00;99.90
3360;DHT22;1693;49.602;11.046;2023-04-03T01:53:21;2.00;99.90
3360;DHT22;1693;49.602;11.046;2023-04-03T01:55:48;2.00;99.90
3360;DHT22;1693;49.602;11.046;2023-04-03T01:58:15;2.00;99.90
3360;DHT22;1693;49.602;11.046;2023-04-03T02:00:44;2.00;99.90
3360;DHT22;1693;49.602;11.046;2023-04-03T02:03:11;1.90;99.90
3360;DHT22;1693;49.602;11.046;2023-04-03T02:05:41;1.90;99.90
3360;DHT22;1693;49.602;11.046;2023-04-03T02:08:09;1.90;99.90
3360;DHT22;1693;49.602;11.046;2023-04-03T02:10:36;1.90;99.90
3360;DHT22;1693;49.602;11.046;2023-04-03T02:13:05;1.80;99.90
3360;DHT22;1693;49.602;11.046;2023-04-03T02:15:32;1.80;99.90
3360;DHT22;1693;49.602;11.046;2023-04-03T02:17:59;1.80;99.90
3360;DHT22;1693;49.602;11.046;2023-04-03T02:20:26;1.80;99.90
3360;DHT22;1693;49.602;11.046;2023-04-03T02:22:53;1.80;99.90
3360;DHT22;1693;49.602;11.046;2023-04-03T02:25:22;1.90;99.90
3360;DHT22;1693;49.602;11.046;2023-04-03T02:27:49;1.90;99.90
3360;DHT22;1693;49.602;11.046;2023-04-03T02:30:17;2.00;99.90
3360;DHT22;1693;49.602;11.046;2023-04-03T02:32:44;2.10;99.90
3360;DHT22;1693;49.602;11.046;2023-04-03T02:35:11;2.20;99.90
3360;DHT22;1693;49.602;11.046;2023-04-03T02:37:39;2.20;99.90
3360;DHT22;1693;49.602;11.046;2023-04-03T02:40:07;2.20;99.90
3360;DHT22;1693;49.602;11.046;2023-04-03T02:42:35;2.40;99.90
3360;DHT22;1693;49.602;11.046;2023-04-03T02:45:03;2.40;99.90
3360;DHT22;1693;49.602;11.046;2023-04-03T02:47:30;2.40;99.90
3360;DHT22;1693;49.602;11.046;2023-04-03T02:49:57;2.50;99.90
3360;DHT22;1693;49.602;11.046;2023-04-03T02:52:24;2.50;99.90
3360;DHT22;1693;49.602;11.046;2023-04-03T02:54:51;2.50;99.90
3360;DHT22;1693;49.602;11.046;2023-04-03T02:57:18;2.50;99.90
3360;DHT22;1693;49.602;11.046;2023-04-03T02:59:48;2.60;99.90
3360;DHT22;1693;49.602;11.046;2023-04-03T03:02:15;2.60;99.90
3360;DHT22;1693;49.602;11.046;2023-04-03T03:04:42;2.60;99.90
3360;DHT22;1693;49.602;11.046;2023-04-03T03:07:09;2.60;99.90
3360;DHT22;1693;49.602;11.046;2023-04-03T03:09:36;2.60;99.90
3360;DHT22;1693;49.602;11.046;2023-04-03T03:12:04;2.60;99.90
3360;DHT22;1693;49.602;11.046;2023-04-03T03:14:31;2.60;99.90
3360;DHT22;1693;49.602;11.046;2023-04-03T03:16:59;2.60;99.90
3360;DHT22;1693;49.602;11.046;2023-04-03T03:19:26;2.60;99.90
3360;DHT22;1693;49.602;11.046;2023-04-03T03:21:53;2.50;99.90
3360;DHT22;1693;49.602;11.046;2023-04-03T03:24:20;2.50;99.90
3360;DHT22;1693;49.602;11.046;2023-04-03T03:26:47;2.50;99.90
3360;DHT22;1693;49.602;11.046;2023-04-03T03:29:15;2.50;99.90
3360;DHT22;1693;49.602;11.046;2023-04-03T03:31:42;2.40;99.90
3360;DHT22;1693;49.602;11.046;2023-04-03T03:34:10;2.50;99.90
3360;DHT22;1693;49.602;11.046;2023-04-03T03:36:38;2.40;99.90
3360;DHT22;1693;49.602;11.046;2023-04-03T03:39:05;2.40;99.90
3360;DHT22;1693;49.602;11.046;2023-04-03T03:41:32;2.40;99.90
3360;DHT22;1693;49.602;11.046;2023-04-03T03:43:59;2.30;99.90
3360;DHT22;1693;49.602;11.046;2023-04-03T03:46:27;2.30;99.90
3360;DHT22;1693;49.602;11.046;2023-04-03T03:48:54;2.30;99.90
3360;DHT22;1693;49.602;11.046;2023-04-03T03:51:22;2.30;99.90
3360;DHT22;1693;49.602;11.046;2023-04-03T03:53:49;2.20;99.90
3360;DHT22;1693;49.602;11.046;2023-04-03T03:56:16;2.20;99.90
3360;DHT22;1693;49.602;11.046;2023-04-03T03:58:43;2.20;99.90
3360;DHT22;1693;49.602;11.046;2023-04-03T04:01:10;2.20;99.90
3360;DHT22;1693;49.602;11.046;2023-04-03T04:03:38;2.20;99.90
3360;DHT22;1693;49.602;11.046;2023-04-03T04:06:05;2.10;99.90
3360;DHT22;1693;49.602;11.046;2023-04-03T04:08:33;2.00;99.90
3360;DHT22;1693;49.602;11.046;2023-04-03T04:11:00;2.00;99.90
3360;DHT22;1693;49.602;11.046;2023-04-03T04:13:28;2.00;99.90
3360;DHT22;1693;49.602;11.046;2023-04-03T04:15:55;1.90;99.90
3360;DHT22;1693;49.602;11.046;2023-04-03T04:18:22;1.90;99.90
3360;DHT22;1693;49.602;11.046;2023-04-03T04:20:50;1.80;99.90
3360;DHT22;1693;49.602;11.046;2023-04-03T04:23:18;1.80;99.90
3360;DHT22;1693;49.602;11.046;2023-04-03T04:25:47;1.80;99.90
3360;DHT22;1693;49.602;11.046;2023-04-03T04:28:14;1.70;99.90
3360;DHT22;1693;49.602;11.046;2023-04-03T04:30:41;1.70;99.90
3360;DHT22;1693;49.602;11.046;2023-04-03T04:33:08;1.60;99.90
3360;DHT22;1693;49.602;11.046;2023-04-03T04:35:35;1.50;99.90
3360;DHT22;1693;49.602;11.046;2023-04-03T04:38:03;1.50;99.90
3360;DHT22;1693;49.602;11.046;2023-04-03T04:40:30;1.50;99.90
3360;DHT22;1693;49.602;11.046;2023-04-03T04:42:58;1.40;99.90
3360;DHT22;1693;49.602;11.046;2023-04-03T04:45:25;1.40;99.90
3360;DHT22;1693;49.602;11.046;2023-04-03T04:47:55;1.40;99.90
3360;DHT22;1693;49.602;11.046;2023-04-03T04:50:22;1.40;99.90
3360;DHT22;1693;49.602;11.046;2023-04-03T04:52:49;1.40;99.90
3360;DHT22;1693;49.602;11.046;2023-04-03T04:55:16;1.40;99.90
3360;DHT22;1693;49.602;11.046;2023-04-03T04:57:45;1.40;99.90
3360;DHT22;1693;49.602;11.046;2023-04-03T05:00:15;1.40;99.90
3360;DHT22;1693;49.602;11.046;2023-04-03T05:02:42;1.40;99.90
3360;DHT22;1693;49.602;11.046;2023-04-03T05:05:10;1.30;99.90
3360;DHT22;1693;49.602;11.046;2023-04-03T05:07:37;1.20;99.90
3360;DHT22;1693;49.602;11.046;2023-04-03T05:10:08;1.20;99.90
3360;DHT22;1693;49.602;11.046;2023-04-03T05:12:37;1.20;99.90
3360;DHT22;1693;49.602;11.046;2023-04-03T05:15:05;1.20;99.90
3360;DHT22;1693;49.602;11.046;2023-04-03T05:17:35;1.50;99.90
3360;DHT22;1693;49.602;11.046;2023-04-03T05:20:02;1.60;99.90
3360;DHT22;1693;49.602;11.046;2023-04-03T05:22:30;1.50;99.90
3360;DHT22;1693;49.602;11.046;2023-04-03T05:24:58;1.50;99.90
3360;DHT22;1693;49.602;11.046;2023-04-03T05:27:26;1.50;99.90
3360;DHT22;1693;49.602;11.046;2023-04-03T05:29:54;1.50;99.90
3360;DHT22;1693;49.602;11.046;2023-04-03T05:32:21;1.60;99.90
3360;DHT22;1693;49.602;11.046;2023-04-03T05:34:50;1.70;99.90
3360;DHT22;1693;49.602;11.046;2023-04-03T05:37:17;1.80;99.90
3360;DHT22;1693;49.602;11.046;2023-04-03T05:39:44;1.90;99.90
3360;DHT22;1693;49.602;11.046;2023-04-03T05:42:11;2.00;99.90
3360;DHT22;1693;49.602;11.046;2023-04-03T05:44:39;2.10;99.90
3360;DHT22;1693;49.602;11.046;2023-04-03T05:47:06;2.20;99.90
3360;DHT22;1693;49.602;11.046;2023-04-03T05:49:33;2.30;99.90
3360;DHT22;1693;49.602;11.046;2023-04-03T05:52:02;2.40;99.90
3360;DHT22;1693;49.602;11.046;2023-04-03T05:54:30;2.50;99.90
3360;DHT22;1693;49.602;11.046;2023-04-03T05:56:56;2.50;99.90
3360;DHT22;1693;49.602;11.046;2023-04-03T05:59:24;2.50;99.90
3360;DHT22;1693;49.602;11.046;2023-04-03T06:01:51;2.60;99.90
3360;DHT22;1693;49.602;11.046;2023-04-03T06:04:18;2.80;99.90
3360;DHT22;1693;49.602;11.046;2023-04-03T06:06:48;2.80;99.90
3360;DHT22;1693;49.602;11.046;2023-04-03T06:09:19;2.80;99.90
3360;DHT22;1693;49.602;11.046;2023-04-03T06:11:47;2.90;99.90
3360;DHT22;1693;49.602;11.046;2023-04-03T06:14:14;2.90;99.90
3360;DHT22;1693;49.602;11.046;2023-04-03T06:16:42;3.00;99.90
3360;DHT22;1693;49.602;11.046;2023-04-03T06:19:11;3.00;99.90
3360;DHT22;1693;49.602;11.046;2023-04-03T06:21:38;3.10;99.90
3360;DHT22;1693;49.602;11.046;2023-04-03T06:24:06;3.20;99.90
3360;DHT22;1693;49.602;11.046;2023-04-03T06:26:35;3.30;99.90
3360;DHT22;1693;49.602;11.046;2023-04-03T06:29:02;3.20;99.90
3360;DHT22;1693;49.602;11.046;2023-04-03T06:31:29;3.20;99.90
3360;DHT22;1693;49.602;11.046;2023-04-03T06:33:56;3.30;99.90
3360;DHT22;1693;49.602;11.046;2023-04-03T06:36:24;3.30;99.90
3360;DHT22;1693;49.602;11.046;2023-04-03T06:38:52;3.20;99.90
3360;DHT22;1693;49.602;11.046;2023-04-03T06:41:19;3.40;99.90
3360;DHT22;1693;49.602;11.046;2023-04-03T06:43:48;3.50;99.90
3360;DHT22;1693;49.602;11.046;2023-04-03T06:46:16;3.60;99.90
3360;DHT22;1693;49.602;11.046;2023-04-03T06:48:44;3.50;99.90
3360;DHT22;1693;49.602;11.046;2023-04-03T06:51:17;3.50;99.90
3360;DHT22;1693;49.602;11.046;2023-04-03T06:53:45;3.70;99.90
3360;DHT22;1693;49.602;11.046;2023-04-03T06:56:12;3.80;99.90
3360;DHT22;1693;49.602;11.046;2023-04-03T06:58:39;3.70;99.90
3360;DHT22;1693;49.602;11.046;2023-04-03T07:01:08;3.70;99.90
3360;DHT22;1693;49.602;11.046;2023-04-03T07:03:36;3.80;99.90
3360;DHT22;1693;49.602;11.046;2023-04-03T07:06:06;3.80;99.90
3360;DHT22;1693;49.602;11.046;2023-04-03T07:08:34;3.90;99.90
3360;DHT22;1693;49.602;11.046;2023-04-03T07:11:01;4.10;99.90
3360;DHT22;1693;49.602;11.046;2023-04-03T07:13:28;4.10;99.90
3360;DHT22;1693;49.602;11.046;2023-04-03T07:15:57;4.10;99.90
3360;DHT22;1693;49.602;11.046;2023-04-03T07:21:47;4.20;99.90
3360;DHT22;1693;49.602;11.046;2023-04-03T07:24:14;4.40;99.90
3360;DHT22;1693;49.602;11.046;2023-04-03T07:26:41;4.20;99.90
3360;DHT22;1693;49.602;11.046;2023-04-03T07:29:10;4.50;99.90
3360;DHT22;1693;49.602;11.046;2023-04-03T07:31:39;4.40;99.90
3360;DHT22;1693;49.602;11.046;2023-04-03T07:34:07;4.40;99.90
3360;DHT22;1693;49.602;11.046;2023-04-03T07:36:33;4.70;99.90
3360;DHT22;1693;49.602;11.046;2023-04-03T07:39:03;4.60;99.90
3360;DHT22;1693;49.602;11.046;2023-04-03T07:41:30;4.60;99.90
3360;DHT22;1693;49.602;11.046;2023-04-03T07:43:58;4.50;99.90
3360;DHT22;1693;49.602;11.046;2023-04-03T07:46:30;4.40;99.90
3360;DHT22;1693;49.602;11.046;2023-04-03T07:49:14;4.40;99.90
3360;DHT22;1693;49.602;11.046;2023-04-03T07:51:49;4.40;99.90
3360;DHT22;1693;49.602;11.046;2023-04-03T07:54:18;4.40;99.90
3360;DHT22;1693;49.602;11.046;2023-04-03T07:56:45;4.20;99.90
3360;DHT22;1693;49.602;11.046;2023-04-03T07:59:12;4.30;99.90
3360;DHT22;1693;49.602;11.046;2023-04-03T08:01:40;4.60;99.90
3360;DHT22;1693;49.602;11.046;2023-04-03T08:04:07;4.70;99.90
3360;DHT22;1693;49.602;11.046;2023-04-03T08:06:34;4.80;99.90
3360;DHT22;1693;49.602;11.046;2023-04-03T08:09:03;5.30;99.90
3360;DHT22;1693;49.602;11.046;2023-04-03T08:11:32;5.60;99.90
3360;DHT22;1693;49.602;11.046;2023-04-03T08:13:59;5.70;99.90
3360;DHT22;1693;49.602;11.046;2023-04-03T08:16:27;5.90;99.90
3360;DHT22;1693;49.602;11.046;2023-04-03T08:18:54;6.20;99.90
3360;DHT22;1693;49.602;11.046;2023-04-03T08:21:35;5.80;99.90
3360;DHT22;1693;49.602;11.046;2023-04-03T08:24:02;5.90;99.90
3360;DHT22;1693;49.602;11.046;2023-04-03T08:26:31;6.00;99.90
3360;DHT22;1693;49.602;11.046;2023-04-03T08:28:58;6.30;99.90
3360;DHT22;1693;49.602;11.046;2023-04-03T08:31:25;6.10;99.90
3360;DHT22;1693;49.602;11.046;2023-04-03T08:33:56;5.70;99.90
3360;DHT22;1693;49.602;11.046;2023-04-03T08:36:25;5.50;99.90
3360;DHT22;1693;49.602;11.046;2023-04-03T08:38:53;5.20;99.90
3360;DHT22;1693;49.602;11.046;2023-04-03T08:41:27;5.10;99.90
3360;DHT22;1693;49.602;11.046;2023-04-03T08:44:03;5.10;99.90
3360;DHT22;1693;49.602;11.046;2023-04-03T08:49:57;5.00;99.90
3360;DHT22;1693;49.602;11.046;2023-04-03T08:52:32;5.30;99.90
3360;DHT22;1693;49.602;11.046;2023-04-03T08:55:02;5.40;99.90
3360;DHT22;1693;49.602;11.046;2023-04-03T08:57:34;5.20;99.90
3360;DHT22;1693;49.602;11.046;2023-04-03T09:00:07;5.30;99.90
3360;DHT22;1693;49.602;11.046;2023-04-03T09:02:44;5.20;99.90
3360;DHT22;1693;49.602;11.046;2023-04-03T09:05:14;5.10;99.90
3360;DHT22;1693;49.602;11.046;2023-04-03T09:07:44;5.00;99.90
3360;DHT22;1693;49.602;11.046;2023-04-03T09:10:14;5.00;99.90
3360;DHT22;1693;49.602;11.046;2023-04-03T09:12:44;5.10;99.90
3360;DHT22;1693;49.602;11.046;2023-04-03T09:15:26;5.50;99.90
3360;DHT22;1693;49.602;11.046;2023-04-03T09:17:59;5.70;99.90
3360;DHT22;1693;49.602;11.046;2023-04-03T09:20:37;5.80;99.90
3360;DHT22;1693;49.602;11.046;2023-04-03T09:23:16;5.80;99.90
3360;DHT22;1693;49.602;11.046;2023-04-03T09:25:45;5.50;99.90
3360;DHT22;1693;49.602;11.046;2023-04-03T09:28:12;5.30;99.90
3360;DHT22;1693;49.602;11.046;2023-04-03T09:30:41;5.20;99.90
3360;DHT22;1693;49.602;11.046;2023-04-03T09:33:09;4.90;99.90
3360;DHT22;1693;49.602;11.046;2023-04-03T09:35:37;5.10;99.90
3360;DHT22;1693;49.602;11.046;2023-04-03T09:38:18;5.40;99.90
3360;DHT22;1693;49.602;11.046;2023-04-03T09:40:48;5.70;99.90
3360;DHT22;1693;49.602;11.046;2023-04-03T09:43:26;5.80;99.90
3360;DHT22;1693;49.602;11.046;2023-04-03T09:45:55;6.30;99.90
3360;DHT22;1693;49.602;11.046;2023-04-03T09:48:23;6.30;99.90
3360;DHT22;1693;49.602;11.046;2023-04-03T09:51:01;6.40;99.90
3360;DHT22;1693;49.602;11.046;2023-04-03T09:53:34;6.00;99.90
3360;DHT22;1693;49.602;11.046;2023-04-03T09:56:05;5.80;99.90
3360;DHT22;1693;49.602;11.046;2023-04-03T09:58:36;5.50;99.20
3360;DHT22;1693;49.602;11.046;2023-04-03T10:01:22;5.70;99.90
3360;DHT22;1693;49.602;11.046;2023-04-03T10:04:04;5.70;99.90
3360;DHT22;1693;49.602;11.046;2023-04-03T10:06:33;5.60;99.90
3360;DHT22;1693;49.602;11.046;2023-04-03T10:09:02;5.80;99.90
3360;DHT22;1693;49.602;11.046;2023-04-03T10:11:30;5.80;99.90
3360;DHT22;1693;49.602;11.046;2023-04-03T10:13:58;5.90;99.00
3360;DHT22;1693;49.602;11.046;2023-04-03T10:16:35;6.20;99.90
3360;DHT22;1693;49.602;11.046;2023-04-03T10:19:23;6.30;99.20
3360;DHT22;1693;49.602;11.046;2023-04-03T10:21:56;6.30;99.90
3360;DHT22;1693;49.602;11.046;2023-04-03T10:24:29;6.40;99.40
3360;DHT22;1693;49.602;11.046;2023-04-03T10:27:04;6.50;99.70
3360;DHT22;1693;49.602;11.046;2023-04-03T10:29:42;6.20;98.50
3360;DHT22;1693;49.602;11.046;2023-04-03T10:35:15;6.70;99.90
3360;DHT22;1693;49.602;11.046;2023-04-03T10:37:52;7.10;99.10
3360;DHT22;1693;49.602;11.046;2023-04-03T10:40:29;7.40;95.80
3360;DHT22;1693;49.602;11.046;2023-04-03T10:43:04;7.20;97.80
3360;DHT22;1693;49.602;11.046;2023-04-03T10:45:52;7.60;97.40
3360;DHT22;1693;49.602;11.046;2023-04-03T10:48:31;7.30;96.50
3360;DHT22;1693;49.602;11.046;2023-04-03T10:51:10;7.20;96.50
3360;DHT22;1693;49.602;11.046;2023-04-03T10:53:43;7.10;96.30
3360;DHT22;1693;49.602;11.046;2023-04-03T10:56:27;7.50;96.10
3360;DHT22;1693;49.602;11.046;2023-04-03T10:59:01;7.90;94.60
3360;DHT22;1693;49.602;11.046;2023-04-03T11:01:32;8.50;94.20
3360;DHT22;1693;49.602;11.046;2023-04-03T11:04:04;9.70;92.10
3360;DHT22;1693;49.602;11.046;2023-04-03T11:06:36;9.60;92.40
3360;DHT22;1693;49.602;11.046;2023-04-03T11:09:10;9.40;91.40
3360;DHT22;1693;49.602;11.046;2023-04-03T11:11:43;9.30;91.40
3360;DHT22;1693;49.602;11.046;2023-04-03T11:14:20;8.50;90.40
3360;DHT22;1693;49.602;11.046;2023-04-03T11:17:08;8.10;93.10
3360;DHT22;1693;49.602;11.046;2023-04-03T11:19:44;7.20;92.00
3360;DHT22;1693;49.602;11.046;2023-04-03T11:22:20;8.20;93.60
3360;DHT22;1693;49.602;11.046;2023-04-03T11:24:57;8.90;90.30
3360;DHT22;1693;49.602;11.046;2023-04-03T11:27:37;9.00;87.30
3360;DHT22;1693;49.602;11.046;2023-04-03T11:30:13;9.30;89.30
3360;DHT22;1693;49.602;11.046;2023-04-03T11:33:07;9.60;84.50
3360;DHT22;1693;49.602;11.046;2023-04-03T11:35:43;10.10;81.70
3360;DHT22;1693;49.602;11.046;2023-04-03T11:38:19;10.60;83.20
3360;DHT22;1693;49.602;11.046;2023-04-03T11:40:49;10.70;82.50
3360;DHT22;1693;49.602;11.046;2023-04-03T11:43:22;9.80;79.80
3360;DHT22;1693;49.602;11.046;2023-04-03T11:45:54;9.20;81.30
3360;DHT22;1693;49.602;11.046;2023-04-03T11:48:50;9.80;85.60
3360;DHT22;1693;49.602;11.046;2023-04-03T11:51:43;10.20;86.20
3360;DHT22;1693;49.602;11.046;2023-04-03T11:54:43;11.20;85.40
3360;DHT22;1693;49.602;11.046;2023-04-03T11:58:02;11.20;79.50
3360;DHT22;1693;49.602;11.046;2023-04-03T12:01:01;11.00;81.20
3360;DHT22;1693;49.602;11.046;2023-04-03T12:06:53;9.90;85.00
3360;DHT22;1693;49.602;11.046;2023-04-03T12:09:24;10.10;81.80
3360;DHT22;1693;49.602;11.046;2023-04-03T12:11:53;10.30;80.00
3360;DHT22;1693;49.602;11.046;2023-04-03T12:14:23;9.50;81.40
3360;DHT22;1693;49.602;11.046;2023-04-03T12:16:52;9.50;86.80
3360;DHT22;1693;49.602;11.046;2023-04-03T12:19:34;10.30;83.90
3360;DHT22;1693;49.602;11.046;2023-04-03T12:22:14;10.60;79.30
3360;DHT22;1693;49.602;11.046;2023-04-03T12:24:43;9.60;80.00
3360;DHT22;1693;49.602;11.046;2023-04-03T12:27:32;9.30;87.10
3360;DHT22;1693;49.602;11.046;2023-04-03T12:30:21;9.30;81.80
3360;DHT22;1693;49.602;11.046;2023-04-03T12:33:02;9.90;85.30
3360;DHT22;1693;49.602;11.046;2023-04-03T12:35:34;10.30;83.10
3360;DHT22;1693;49.602;11.046;2023-04-03T12:38:30;10.30;80.40
3360;DHT22;1693;49.602;11.046;2023-04-03T12:41:17;9.80;81.30
3360;DHT22;1693;49.602;11.046;2023-04-03T12:43:55;9.80;81.50
3360;DHT22;1693;49.602;11.046;2023-04-03T12:46:33;9.80;79.40
3360;DHT22;1693;49.602;11.046;2023-04-03T12:49:17;9.80;83.80
3360;DHT22;1693;49.602;11.046;2023-04-03T12:51:47;11.30;77.90
3360;DHT22;1693;49.602;11.046;2023-04-03T12:54:18;11.40;78.10
3360;DHT22;1693;49.602;11.046;2023-04-03T12:56:46;12.00;79.40
3360;DHT22;1693;49.602;11.046;2023-04-03T12:59:15;12.70;79.10
3360;DHT22;1693;49.602;11.046;2023-04-03T13:01:43;13.20;77.40
3360;DHT22;1693;49.602;11.046;2023-04-03T13:04:11;13.60;70.90
3360;DHT22;1693;49.602;11.046;2023-04-03T13:06:41;13.50;69.30
3360;DHT22;1693;49.602;11.046;2023-04-03T13:09:20;13.50;67.60
3360;DHT22;1693;49.602;11.046;2023-04-03T13:11:50;13.50;64.60
3360;DHT22;1693;49.602;11.046;2023-04-03T13:14:20;12.30;62.60
3360;DHT22;1693;49.602;11.046;2023-04-03T13:16:54;12.80;91.30
3360;DHT22;1693;49.602;11.046;2023-04-03T13:19:23;12.80;65.30
3360;DHT22;1693;49.602;11.046;2023-04-03T13:21:57;11.90;63.60
3360;DHT22;1693;49.602;11.046;2023-04-03T13:24:28;10.80;69.50
3360;DHT22;1693;49.602;11.046;2023-04-03T13:26:56;11.10;68.60
3360;DHT22;1693;49.602;11.046;2023-04-03T13:29:25;11.10;66.30
3360;DHT22;1693;49.602;11.046;2023-04-03T13:31:53;11.80;70.40
3360;DHT22;1693;49.602;11.046;2023-04-03T13:34:23;11.30;66.20
3360;DHT22;1693;49.602;11.046;2023-04-03T13:36:57;10.50;68.80
3360;DHT22;1693;49.602;11.046;2023-04-03T13:39:27;11.00;67.90
3360;DHT22;1693;49.602;11.046;2023-04-03T13:41:56;12.00;66.90
3360;DHT22;1693;49.602;11.046;2023-04-03T13:44:30;12.30;68.30
3360;DHT22;1693;49.602;11.046;2023-04-03T13:46:59;11.80;60.80
3360;DHT22;1693;49.602;11.046;2023-04-03T13:49:33;11.90;66.20
3360;DHT22;1693;49.602;11.046;2023-04-03T13:52:03;10.80;64.00
3360;DHT22;1693;49.602;11.046;2023-04-03T13:54:35;10.50;64.30
3360;DHT22;1693;49.602;11.046;2023-04-03T13:57:13;9.80;70.50
3360;DHT22;1693;49.602;11.046;2023-04-03T13:59:43;9.70;70.00
3360;DHT22;1693;49.602;11.046;2023-04-03T14:02:46;10.10;63.40
3360;DHT22;1693;49.602;11.046;2023-04-03T14:08:54;11.70;68.10
3360;DHT22;1693;49.602;11.046;2023-04-03T14:11:37;12.20;65.20
3360;DHT22;1693;49.602;11.046;2023-04-03T14:14:11;12.60;64.10
3360;DHT22;1693;49.602;11.046;2023-04-03T14:16:40;12.90;63.20
3360;DHT22;1693;49.602;11.046;2023-04-03T14:19:28;13.10;58.70
3360;DHT22;1693;49.602;11.046;2023-04-03T14:22:00;11.60;58.60
3360;DHT22;1693;49.602;11.046;2023-04-03T14:24:31;10.60;61.00
3360;DHT22;1693;49.602;11.046;2023-04-03T14:27:27;12.00;62.90
3360;DHT22;1693;49.602;11.046;2023-04-03T14:30:17;11.70;61.40
3360;DHT22;1693;49.602;11.046;2023-04-03T14:32:44;10.30;60.20
3360;DHT22;1693;49.602;11.046;2023-04-03T14:35:12;11.30;62.80
3360;DHT22;1693;49.602;11.046;2023-04-03T14:37:40;10.90;61.50
3360;DHT22;1693;49.602;11.046;2023-04-03T14:40:11;10.00;60.20
3360;DHT22;1693;49.602;11.046;2023-04-03T14:42:40;9.50;61.60
3360;DHT22;1693;49.602;11.046;2023-04-03T14:45:10;10.40;65.30
3360;DHT22;1693;49.602;11.046;2023-04-03T14:47:42;10.70;59.70
3360;DHT22;1693;49.602;11.046;2023-04-03T14:50:16;10.50;62.40
3360;DHT22;1693;49.602;11.046;2023-04-03T14:52:44;11.60;59.40
3360;DHT22;1693;49.602;11.046;2023-04-03T14:55:12;12.90;60.80
3360;DHT22;1693;49.602;11.046;2023-04-03T14:57:43;13.60;60.60
3360;DHT22;1693;49.602;11.046;2023-04-03T15:00:13;13.30;60.20
3360;DHT22;1693;49.602;11.046;2023-04-03T15:02:42;13.00;58.30
3360;DHT22;1693;49.602;11.046;2023-04-03T15:05:10;11.90;57.90
3360;DHT22;1693;49.602;11.046;2023-04-03T15:07:39;10.60;58.50
3360;DHT22;1693;49.602;11.046;2023-04-03T15:10:16;9.70;64.30
3360;DHT22;1693;49.602;11.046;2023-04-03T15:12:45;9.60;64.60
3360;DHT22;1693;49.602;11.046;2023-04-03T15:15:13;9.80;66.30
3360;DHT22;1693;49.602;11.046;2023-04-03T15:17:43;10.50;62.70
3360;DHT22;1693;49.602;11.046;2023-04-03T15:20:13;9.60;63.00
3360;DHT22;1693;49.602;11.046;2023-04-03T15:22:40;9.60;65.40
3360;DHT22;1693;49.602;11.046;2023-04-03T15:25:08;9.40;65.20
3360;DHT22;1693;49.602;11.046;2023-04-03T15:27:35;10.10;62.90
3360;DHT22;1693;49.602;11.046;2023-04-03T15:30:06;10.30;63.30
3360;DHT22;1693;49.602;11.046;2023-04-03T15:32:33;11.60;62.60
3360;DHT22;1693;49.602;11.046;2023-04-03T15:35:01;13.00;59.90
3360;DHT22;1693;49.602;11.046;2023-04-03T15:37:28;12.80;57.50
3360;DHT22;1693;49.602;11.046;2023-04-03T15:39:56;14.00;59.30
3360;DHT22;1693;49.602;11.046;2023-04-03T15:42:23;13.20;56.80
3360;DHT22;1693;49.602;11.046;2023-04-03T15:44:50;13.40;55.80
3360;DHT22;1693;49.602;11.046;2023-04-03T15:47:18;12.80;56.20
3360;DHT22;1693;49.602;11.046;2023-04-03T15:52:14;12.20;55.20
3360;DHT22;1693;49.602;11.046;2023-04-03T15:54:44;12.40;55.10
3360;DHT22;1693;49.602;11.046;2023-04-03T15:57:13;12.30;54.80
3360;DHT22;1693;49.602;11.046;2023-04-03T15:59:40;12.40;56.10
3360;DHT22;1693;49.602;11.046;2023-04-03T16:02:09;13.30;57.30
3360;DHT22;1693;49.602;11.046;2023-04-03T16:04:40;12.60;55.70
3360;DHT22;1693;49.602;11.046;2023-04-03T16:07:07;13.20;55.30
3360;DHT22;1693;49.602;11.046;2023-04-03T16:09:35;12.90;54.50
3360;DHT22;1693;49.602;11.046;2023-04-03T16:12:03;14.00;55.50
3360;DHT22;1693;49.602;11.046;2023-04-03T16:14:30;13.00;54.90
3360;DHT22;1693;49.602;11.046;2023-04-03T16:16:58;13.50;54.40
3360;DHT22;1693;49.602;11.046;2023-04-03T16:19:25;13.20;53.70
3360;DHT22;1693;49.602;11.046;2023-04-03T16:24:21;12.80;54.10
3360;DHT22;1693;49.602;11.046;2023-04-03T16:26:49;12.60;55.00
3360;DHT22;1693;49.602;11.046;2023-04-03T16:29:16;13.80;55.50
3360;DHT22;1693;49.602;11.046;2023-04-03T16:31:43;12.30;54.80
3360;DHT22;1693;49.602;11.046;2023-04-03T16:34:11;12.10;55.60
3360;DHT22;1693;49.602;11.046;2023-04-03T16:36:38;12.10;56.00
3360;DHT22;1693;49.602;11.046;2023-04-03T16:39:07;12.70;55.70
3360;DHT22;1693;49.602;11.046;2023-04-03T16:41:35;11.70;55.60
3360;DHT22;1693;49.602;11.046;2023-04-03T16:44:02;12.60;56.00